Garnett Industrial Airport (K68)
Garnett, KS
Field Elevation: 989
Lat: 38°16.64N  Long: 95°12.91W
CTAF/Unicom Freq: 122.8000
   
     For Weather-by-Phone, call 785-448-3254
Weather Advisories
7/22/2014 14:57 Z
Altimeter 30.06" Hg
Wind 220° @ 9 KT
Gusts --
Visibility 5 SM
Temperature 28° C (82° F)
Dewpoint 24° C (75° F)
Relative Humidity 80%
Density Altitude 2,600 feet
Condensation Altitude 2,900 feet
Heat Index 32° C (90° F)
  Wind and Runways
Indicated Runway = 19
History
 
 
More Info
All DigiWx sites map
NOAA Forecast
 
Airport IQ 5010
(FLV) Sherman Airfield
(GRE) Greenville
 
about DigiWx
 
FAA Disclaimer: The data displayed is for advisory purposes only and is not to be used for flight planning or operations. For official data, please call 785-448-3254 to hear the current automated AWOS voice message.
  METAR K68 221457Z AUTO 22009KT 5SM 28/24 A3006